»·PEaware :: N101HZ KVNY-KEGE

N101HZ :: KVNY-KEGE

FLIGHT INFORMATION

Flight Status: Arrived
Operator: Privately registered:
United States
More flights under this callsign
Pilot: Chris A. (85)
Aircraft: DASSAULT AVIATION FALCON 2000
(F2TH)
More flights by this aircraft type
Origin: KVNY Van Nuys
United States
Destination: KEGE Eagle Co Regl
United States
More flights between these airports :: More routes between these airports
Route: HARYS1 LAS J146 DICEE DVC JNC JESIE RLG
File this flight plan on PilotEdge
Remarks: PBN / A1B1D1 DOF / 171223 REG / N101HZ EET / KZDV0055 RMK / TCAS
Altitude:
(Current/Filed)
41,000ft
Speed:
(Current/Filed)
395kts
Departed: 23-Dec-17 12:28 PM
Arrived: 23-Dec-17 02:26 PM
Distance/Time
Traveled:
643nm/1:57
Distance/Time
To Go:
Arrived

Flight Plot

Page will automatically refresh every two minutes.

Flight plan parsing failed; only flown route is shown


Map Options




Map Legend


Flown Route
Filed Route
Departure Airport
Arrival Airport
Navaid (VOR, NDB)
Fix

Horizontal Profiles

Position Reports

Time Latitude Longitude Heading Altitude Ground
Speed
23-Dec-17 12:10 34.205939 -118.487036 175 807ft 0kts
23-Dec-17 12:11 34.205939 -118.487036 175 807ft 0kts
23-Dec-17 12:12 34.205939 -118.487036 175 807ft 0kts
23-Dec-17 12:13 34.205939 -118.487036 175 807ft 0kts
23-Dec-17 12:14 34.205939 -118.487036 175 807ft 0kts
23-Dec-17 12:15 34.205939 -118.487036 175 807ft 0kts
23-Dec-17 12:16 34.205939 -118.487036 175 807ft 0kts
23-Dec-17 12:17 34.205939 -118.487036 175 807ft 0kts
23-Dec-17 12:18 34.205939 -118.487036 175 807ft 0kts
23-Dec-17 12:19 34.205939 -118.487036 175 807ft 0kts
23-Dec-17 12:20 34.205939 -118.487036 175 807ft 0kts
23-Dec-17 12:21 34.205939 -118.487036 175 807ft 0kts
23-Dec-17 12:22 34.205939 -118.487036 175 807ft 0kts
23-Dec-17 12:23 34.205939 -118.487036 175 807ft 0kts
23-Dec-17 12:24 34.205939 -118.487036 175 807ft 0kts
23-Dec-17 12:25 34.205939 -118.487036 175 807ft 0kts
23-Dec-17 12:26 34.205939 -118.487036 175 807ft 0kts
23-Dec-17 12:27 34.205939 -118.487036 175 807ft 0kts
23-Dec-17 12:28 34.205811 -118.487056 207 807ft 4kts
23-Dec-17 12:29 34.206413 -118.488133 358 807ft 8kts
23-Dec-17 12:30 34.209733 -118.488423 355 807ft 13kts
23-Dec-17 12:31 34.213048 -118.488734 355 807ft 10kts
23-Dec-17 12:32 34.216418 -118.489057 355 807ft 10kts
23-Dec-17 12:33 34.218154 -118.489892 266 807ft 8kts
23-Dec-17 12:34 34.208369 -118.490298 175 841ft 141kts
23-Dec-17 12:35 34.169858 -118.459218 123 2637ft 199kts
23-Dec-17 12:36 34.140040 -118.401497 121 3926ft 201kts
23-Dec-17 12:37 34.133001 -118.343461 23 5144ft 173kts
23-Dec-17 12:38 34.177287 -118.345779 351 7877ft 169kts
23-Dec-17 12:39 34.228222 -118.352093 351 10628ft 198kts
23-Dec-17 12:40 34.291566 -118.356410 351 12920ft 262kts
23-Dec-17 12:41 34.372292 -118.361351 352 14027ft 309kts
23-Dec-17 12:42 34.461130 -118.353583 28 14043ft 352kts
23-Dec-17 12:43 34.533209 -118.267606 38 14541ft 359kts
23-Dec-17 12:44 34.605948 -118.189499 34 15715ft 341kts
23-Dec-17 12:45 34.665956 -118.101762 62 16918ft 364kts
23-Dec-17 12:46 34.693494 -117.965538 80 18733ft 453kts
23-Dec-17 12:47 34.703042 -117.807113 84 21867ft 482kts
23-Dec-17 12:48 34.709181 -117.643838 84 25367ft 480kts
23-Dec-17 12:49 34.721446 -117.483950 73 28389ft 470kts
23-Dec-17 12:50 34.758372 -117.331166 66 30550ft 470kts
23-Dec-17 12:51 34.799772 -117.180926 65 32646ft 467kts
23-Dec-17 12:52 34.840362 -117.031000 65 34509ft 467kts
23-Dec-17 12:53 34.880075 -116.880512 65 36210ft 463kts
23-Dec-17 12:54 34.922135 -116.735149 52 37899ft 440kts
23-Dec-17 12:55 34.994816 -116.623096 37 39593ft 410kts
23-Dec-17 12:56 35.071514 -116.524278 36 41179ft 393kts
23-Dec-17 12:57 35.148588 -116.425135 37 41332ft 414kts
23-Dec-17 12:58 35.229116 -116.319693 38 41332ft 434kts
23-Dec-17 12:59 35.312002 -116.209599 39 41332ft 439kts
23-Dec-17 13:00 35.394078 -116.099698 38 41328ft 436kts
23-Dec-17 13:01 35.476037 -115.989724 38 41326ft 435kts
23-Dec-17 13:02 35.557424 -115.880238 38 41324ft 434kts
23-Dec-17 13:03 35.638443 -115.770641 38 41325ft 433kts
23-Dec-17 13:04 35.719145 -115.660082 39 41326ft 433kts
23-Dec-17 13:05 35.799327 -115.549575 39 41327ft 433kts
23-Dec-17 13:06 35.879579 -115.438551 39 41331ft 433kts
23-Dec-17 13:07 35.953070 -115.336533 39 41334ft 432kts
23-Dec-17 13:08 36.032062 -115.226492 38 41329ft 432kts
23-Dec-17 13:09 36.099920 -115.100185 56 41319ft 454kts
23-Dec-17 13:10 36.145983 -114.953151 61 41298ft 461kts
23-Dec-17 13:11 36.189167 -114.803956 60 41301ft 460kts
23-Dec-17 13:12 36.234495 -114.655480 60 41301ft 460kts
23-Dec-17 13:13 36.279769 -114.507546 60 41299ft 460kts
23-Dec-17 13:14 36.321447 -114.370410 60 41295ft 460kts
23-Dec-17 13:15 36.366211 -114.222109 60 41293ft 460kts
23-Dec-17 13:16 36.410814 -114.073406 60 41292ft 460kts
23-Dec-17 13:17 36.455306 -113.924215 60 41292ft 460kts
23-Dec-17 13:18 36.499522 -113.775131 60 41297ft 460kts
23-Dec-17 13:19 36.543585 -113.625746 60 41292ft 461kts
23-Dec-17 13:20 36.587658 -113.475454 61 41296ft 462kts
23-Dec-17 13:21 36.631454 -113.325191 61 41297ft 463kts
23-Dec-17 13:22 36.675336 -113.174088 61 41298ft 463kts
23-Dec-17 13:23 36.718946 -113.022970 61 41298ft 464kts
23-Dec-17 13:24 36.762398 -112.871449 61 41295ft 465kts
23-Dec-17 13:25 36.805886 -112.718846 61 41293ft 466kts
23-Dec-17 13:26 36.849066 -112.566357 61 41289ft 467kts
23-Dec-17 13:27 36.892244 -112.412824 61 41283ft 468kts
23-Dec-17 13:28 36.935298 -112.259354 61 41263ft 469kts
23-Dec-17 13:29 36.978491 -112.104832 61 41237ft 470kts
23-Dec-17 13:30 37.021409 -111.950262 62 41223ft 471kts
23-Dec-17 13:31 37.064184 -111.795206 62 41215ft 472kts
23-Dec-17 13:32 37.107001 -111.639000 62 41212ft 474kts
23-Dec-17 13:33 37.149547 -111.482794 62 41211ft 475kts
23-Dec-17 13:34 37.191946 -111.326097 62 41208ft 476kts
23-Dec-17 13:35 37.234387 -111.168342 62 41208ft 476kts
23-Dec-17 13:36 37.276629 -111.010749 63 41206ft 477kts
23-Dec-17 13:37 37.318857 -110.852115 63 41204ft 478kts
23-Dec-17 13:38 37.360811 -110.693427 63 41198ft 480kts
23-Dec-17 13:39 37.402608 -110.534264 63 41214ft 480kts
23-Dec-17 13:40 37.444401 -110.374104 63 41220ft 481kts
23-Dec-17 13:41 37.485926 -110.213919 63 41228ft 482kts
23-Dec-17 13:42 37.527318 -110.053244 64 41238ft 483kts
23-Dec-17 13:43 37.568733 -109.891442 64 41249ft 484kts
23-Dec-17 13:44 37.609826 -109.729821 64 41259ft 485kts
23-Dec-17 13:45 37.650911 -109.567173 65 41266ft 486kts
23-Dec-17 13:46 37.691694 -109.404638 65 41265ft 487kts
23-Dec-17 13:47 37.732455 -109.241091 65 41254ft 488kts
23-Dec-17 13:48 37.772944 -109.077451 65 41236ft 489kts
23-Dec-17 13:49 37.823730 -108.921717 34 41216ft 455kts
23-Dec-17 13:50 37.931412 -108.885012 348 41209ft 394kts
23-Dec-17 13:51 38.040848 -108.890278 349 41199ft 396kts
23-Dec-17 13:52 38.152144 -108.887902 352 41189ft 401kts
23-Dec-17 13:53 38.263934 -108.879453 354 41183ft 404kts
23-Dec-17 13:54 38.376171 -108.868403 354 41167ft 405kts
23-Dec-17 13:55 38.489123 -108.856330 354 40708ft 406kts
23-Dec-17 13:56 38.601575 -108.843912 354 39031ft 406kts
23-Dec-17 13:57 38.714141 -108.831335 352 37331ft 403kts
23-Dec-17 13:58 38.824529 -108.818851 352 35619ft 394kts
23-Dec-17 13:59 38.931776 -108.806694 350 33923ft 382kts
23-Dec-17 14:00 39.042214 -108.791303 5 32223ft 442kts
23-Dec-17 14:01 39.141382 -108.670874 43 30547ft 528kts
23-Dec-17 14:02 39.221526 -108.508188 49 28851ft 537kts
23-Dec-17 14:03 39.294773 -108.350867 49 27149ft 500kts
23-Dec-17 14:04 39.367277 -108.200132 49 25455ft 490kts
23-Dec-17 14:05 39.440324 -108.052205 49 24150ft 478kts
23-Dec-17 14:06 39.510428 -107.911257 48 24052ft 458kts
23-Dec-17 14:07 39.579259 -107.773810 48 24051ft 452kts
23-Dec-17 14:08 39.647694 -107.637131 48 24044ft 449kts
23-Dec-17 14:09 39.715482 -107.501235 48 24022ft 448kts
23-Dec-17 14:10 39.782966 -107.365348 48 24002ft 448kts
23-Dec-17 14:11 39.847835 -107.234136 48 23984ft 448kts
23-Dec-17 14:12 39.915889 -107.095978 49 22561ft 450kts
23-Dec-17 14:13 39.982331 -106.959872 49 20857ft 439kts
23-Dec-17 14:14 40.023697 -106.814628 84 18730ft 430kts
23-Dec-17 14:15 40.017762 -106.662443 95 16226ft 411kts
23-Dec-17 14:16 40.044040 -106.529914 60 13969ft 350kts
23-Dec-17 14:17 40.081761 -106.429262 59 13904ft 277kts
23-Dec-17 14:18 40.056457 -106.367900 214 13905ft 177kts
23-Dec-17 14:19 40.022764 -106.406737 232 13913ft 167kts
23-Dec-17 14:20 39.982696 -106.446309 216 13783ft 203kts
23-Dec-17 14:21 39.926445 -106.473432 203 13720ft 224kts
23-Dec-17 14:22 39.867949 -106.498837 209 13729ft 222kts
23-Dec-17 14:23 39.808630 -106.524268 208 13735ft 226kts
23-Dec-17 14:24 39.748909 -106.549166 208 13406ft 215kts
23-Dec-17 14:25 39.697173 -106.576591 236 12893ft 181kts
23-Dec-17 14:26 39.686346 -106.631008 264 12142ft 160kts
23-Dec-17 14:27 39.676988 -106.688525 255 10640ft 159kts
23-Dec-17 14:28 39.668147 -106.740953 260 9767ft 131kts
23-Dec-17 14:29 39.659667 -106.786302 253 9275ft 138kts
23-Dec-17 14:30 39.651834 -106.838537 258 8375ft 155kts
23-Dec-17 14:31 39.645057 -106.893754 262 6766ft 141kts
23-Dec-17 14:32 39.642237 -106.916874 161 6520ft 12kts
23-Dec-17 14:33 39.641414 -106.914315 81 6520ft 10kts
23-Dec-17 14:34 39.641862 -106.910234 81 6520ft 11kts
23-Dec-17 14:35 39.641336 -106.909615 264 6520ft 0kts
23-Dec-17 14:36 39.641336 -106.909615 264 6520ft 0kts
23-Dec-17 14:37 39.641336 -106.909615 264 6520ft 0kts
23-Dec-17 14:38 39.641336 -106.909615 264 6520ft 0kts

Navigation Log

Ident Type
Flight plan parsing failed, navigation log unavailable